Time;durP1;ratioP1;P1;durP2;ratioP2;P2;SDS_P1;SDS_P2;PMS_P1;PMS_P2;Temp;Humidity;BMP_temperature;BMP_pressure;BME280_temperature;BME280_humidity;BME280_pressure;Samples;Min_cycle;Max_cycle;Signal;HPM_P1;HPM_P2
2022/05/15 00:01:52;;;;;;;15.80;3.67;;;7.70;99.90;;;6.35;100.00;101650.66;4963872;28;20454;-76
2022/05/15 00:04:19;;;;;;;21.25;3.70;;;7.60;99.90;;;6.36;100.00;101656.75;4930776;28;20065;-79
2022/05/15 00:06:44;;;;;;;28.02;4.20;;;7.70;99.90;;;6.35;100.00;101655.03;4894914;28;20113;-76
2022/05/15 00:09:10;;;;;;;20.92;4.90;;;7.70;99.90;;;6.35;100.00;101658.50;4917219;28;20034;-77
2022/05/15 00:11:36;;;;;;;27.17;5.05;;;7.70;99.90;;;6.38;100.00;101654.97;4924228;28;20038;-76
2022/05/15 00:14:02;;;;;;;18.40;4.18;;;7.70;99.90;;;6.42;100.00;101650.56;4926319;28;20038;-76
2022/05/15 00:16:31;;;;;;;25.17;4.47;;;7.70;99.90;;;6.46;100.00;101650.50;4941575;28;20688;-77
2022/05/15 00:18:58;;;;;;;18.98;4.13;;;7.80;99.90;;;6.47;100.00;101651.38;4927203;28;20034;-77
2022/05/15 00:21:26;;;;;;;24.15;3.63;;;7.70;99.90;;;6.43;100.00;101649.69;4924220;28;20023;-76
2022/05/15 00:23:52;;;;;;;20.83;3.60;;;7.70;99.90;;;6.34;100.00;101654.16;4953693;28;20496;-77
2022/05/15 00:26:18;;;;;;;22.40;3.80;;;7.70;99.90;;;6.29;100.00;101652.50;4950615;28;21529;-77
2022/05/15 00:28:44;;;;;;;22.80;4.32;;;7.60;99.90;;;6.25;100.00;101658.66;4924745;28;21249;-77
2022/05/15 00:31:10;;;;;;;16.92;4.35;;;7.60;99.90;;;6.22;100.00;101662.19;4927123;28;20039;-76
2022/05/15 00:33:36;;;;;;;20.98;4.20;;;7.60;99.90;;;6.25;100.00;101653.44;4941162;28;20125;-76
2022/05/15 00:36:03;;;;;;;20.52;3.85;;;7.60;99.90;;;6.27;100.00;101665.59;4934518;28;20030;-77
2022/05/15 00:38:29;;;;;;;22.23;3.92;;;7.60;99.90;;;6.30;100.00;101668.16;4936407;28;20408;-77
2022/05/15 00:40:55;;;;;;;17.13;3.90;;;7.60;99.90;;;6.31;100.00;101663.81;4944984;28;20019;-77
2022/05/15 00:43:45;;;;;;;27.42;4.15;;;7.60;99.90;;;6.31;100.00;101663.81;4933948;28;20027;-77
2022/05/15 00:46:32;;;;;;;18.10;4.38;;;7.60;99.90;;;6.25;100.00;101662.13;4940048;28;20534;-76
2022/05/15 00:49:00;;;;;;;;;;;7.60;99.90;;;6.12;100.00;101658.81;4926244;28;20034;-77
2022/05/15 00:51:50;;;;;;;13.93;3.15;;;7.50;99.90;;;6.08;100.00;101657.13;4951736;28;19956;-77
2022/05/15 00:54:32;;;;;;;16.08;4.10;;;7.40;99.90;;;6.06;100.00;101661.50;4949930;28;20034;-77
2022/05/15 00:57:19;;;;;;;24.45;4.53;;;7.40;99.90;;;6.06;100.00;101655.41;4930644;28;20524;-77
2022/05/15 01:00:05;;;;;;;20.02;4.10;;;7.40;99.90;;;6.09;100.00;101652.75;4954929;28;20129;-77
2022/05/15 01:02:39;;;;;;;21.17;4.03;;;7.40;99.90;;;6.10;100.00;101654.50;4907844;28;20062;-77
2022/05/15 01:05:07;;;;;;;25.40;4.30;;;7.40;99.90;;;6.13;100.00;101662.28;4924967;28;20449;-77
2022/05/15 01:07:33;;;;;;;19.95;4.78;;;7.40;99.90;;;6.12;100.00;101671.03;4947847;28;20503;-76
2022/05/15 01:10:00;;;;;;;23.50;4.28;;;7.40;99.90;;;6.09;100.00;101669.31;4957914;28;20069;-76
2022/05/15 01:12:27;;;;;;;18.33;4.57;;;7.40;99.90;;;6.04;100.00;101665.03;4952883;28;20590;-77
2022/05/15 01:14:53;;;;;;;14.05;3.92;;;7.40;99.90;;;5.99;100.00;101664.25;4944947;28;20041;-77
2022/05/15 01:17:19;;;;;;;19.42;4.80;;;7.30;99.90;;;5.95;100.00;101666.00;4955709;28;20113;-76
2022/05/15 01:19:47;;;;;;;16.13;3.90;;;7.30;99.90;;;5.92;100.00;101666.88;4947778;28;20595;-77
2022/05/15 01:22:15;;;;;;;21.45;3.95;;;7.30;99.90;;;5.90;100.00;101665.19;4946758;28;20057;-77
2022/05/15 01:24:44;;;;;;;16.17;3.97;;;7.20;99.90;;;5.81;100.00;101666.16;4944010;28;20030;-77
2022/05/15 01:27:14;;;;;;;19.77;4.78;;;7.10;99.90;;;5.71;100.00;101662.78;4962486;28;20442;-77
2022/05/15 01:29:45;;;;;;;17.95;3.78;;;7.10;99.90;;;5.65;100.00;101667.19;4953107;28;20105;-77
2022/05/15 01:32:12;;;;;;;18.35;4.50;;;7.10;99.90;;;5.60;100.00;101671.63;4951809;28;20035;-77
2022/05/15 01:34:41;;;;;;;25.23;4.70;;;7.00;99.90;;;5.54;100.00;101668.19;4966062;28;20034;-77
2022/05/15 01:37:08;;;;;;;21.65;4.15;;;6.90;99.90;;;5.51;100.00;101670.84;4947414;28;20034;-76
2022/05/15 01:39:34;;;;;;;17.58;4.43;;;6.90;99.90;;;5.46;100.00;101680.44;4957173;28;20038;-77
2022/05/15 01:42:02;;;;;;;24.92;4.60;;;6.80;99.90;;;5.37;100.00;101675.31;4954022;28;20033;-77
2022/05/15 01:44:28;;;;;;;23.58;4.90;;;6.80;99.90;;;5.35;100.00;101687.53;4941131;28;20505;-77
2022/05/15 01:46:54;;;;;;;20.60;4.53;;;6.70;99.90;;;5.32;100.00;101679.75;4930200;28;20145;-77
2022/05/15 01:49:23;;;;;;;20.60;4.70;;;6.70;99.90;;;5.28;100.00;101688.47;4905664;28;20041;-77
2022/05/15 01:51:49;;;;;;;24.13;4.13;;;6.60;99.90;;;5.24;100.00;101685.03;4959812;28;20040;-77
2022/05/15 01:54:15;;;;;;;22.10;4.63;;;6.60;99.90;;;5.20;100.00;101680.69;4900803;28;20034;-77
2022/05/15 01:56:42;;;;;;;24.42;4.78;;;6.60;99.90;;;5.13;100.00;101677.28;4906165;28;20025;-77
2022/05/15 01:59:11;;;;;;;24.38;4.70;;;6.50;99.90;;;5.05;100.00;101670.41;4962049;28;20077;-76
2022/05/15 02:01:37;;;;;;;22.75;5.75;;;6.40;99.90;;;5.01;100.00;101674.81;4919122;28;20033;-77
2022/05/15 02:04:04;;;;;;;21.75;5.28;;;6.40;99.90;;;5.00;100.00;101675.66;4969954;28;20046;-77
2022/05/15 02:06:29;;;;;;;17.25;4.85;;;6.40;99.90;;;5.01;100.00;101669.56;4949125;28;20182;-77
2022/05/15 02:08:57;;;;;;;14.85;4.43;;;6.40;99.90;;;5.04;100.00;101672.16;4953668;28;20038;-76
2022/05/15 02:11:22;;;;;;;14.68;3.78;;;6.50;99.90;;;5.12;100.00;101678.19;4930269;28;20030;-77
2022/05/15 02:13:48;;;;;;;14.70;4.28;;;6.60;99.90;;;5.21;100.00;101685.06;4938889;28;20109;-77
2022/05/15 02:16:14;;;;;;;16.95;4.18;;;6.70;99.90;;;5.27;100.00;101686.72;4948217;28;20518;-77
2022/05/15 02:18:42;;;;;;;20.70;4.93;;;6.70;99.90;;;5.34;100.00;101688.44;4964129;28;20049;-77
2022/05/15 02:21:08;;;;;;;18.20;5.38;;;6.80;99.90;;;5.39;100.00;101688.38;4934286;28;20029;-77
2022/05/15 02:23:33;;;;;;;15.32;5.85;;;6.80;99.90;;;5.41;100.00;101690.09;4945359;28;20185;-77
2022/05/15 02:25:59;;;;;;;21.23;6.20;;;6.80;99.90;;;5.42;100.00;101693.56;4951778;28;20069;-77
2022/05/15 02:28:26;;;;;;;24.23;5.85;;;6.80;99.90;;;5.39;100.00;101697.06;4917444;28;20085;-77
2022/05/15 02:30:52;;;;;;;19.30;5.05;;;6.80;99.90;;;5.36;100.00;101702.34;4932425;28;20109;-77
2022/05/15 02:33:18;;;;;;;15.52;4.63;;;6.80;99.90;;;5.35;100.00;101698.84;4929447;28;20561;-77
2022/05/15 02:35:44;;;;;;;22.85;6.07;;;6.80;99.90;;;5.34;100.00;101693.66;4958234;28;20034;-77
2022/05/15 02:38:10;;;;;;;19.15;5.13;;;6.80;99.90;;;5.37;100.00;101693.59;4965664;28;20030;-77
2022/05/15 02:40:36;;;;;;;20.65;5.53;;;6.80;99.90;;;5.35;100.00;101696.22;4947676;28;20039;-77
2022/05/15 02:43:02;;;;;;;16.80;4.70;;;6.80;99.90;;;5.32;100.00;101698.88;4945837;28;20106;-76
2022/05/15 02:45:28;;;;;;;15.68;5.25;;;6.70;99.90;;;5.30;100.00;101694.56;4961184;28;20033;-77
2022/05/15 02:47:54;;;;;;;15.00;4.97;;;6.70;99.90;;;5.29;100.00;101690.19;4934355;28;20056;-77
2022/05/15 02:53:06;;;;;;;22.48;6.20;;;6.70;99.90;;;5.26;100.00;101698.94;4925653;28;20033;-76
2022/05/15 02:55:32;;;;;;;19.27;5.40;;;6.70;99.90;;;5.27;100.00;101699.78;4942084;28;20041;-77
2022/05/15 02:57:58;;;;;;;17.15;5.95;;;6.70;99.90;;;5.30;100.00;101694.56;4917826;28;20456;-77
2022/05/15 03:00:26;;;;;;;17.60;5.82;;;6.60;99.90;;;5.27;100.00;101692.84;4943074;28;20027;-77
2022/05/15 03:02:53;;;;;;;22.33;5.65;;;6.70;99.90;;;5.25;100.00;101689.38;4934638;28;20698;-77
2022/05/15 03:05:21;;;;;;;18.13;5.60;;;6.60;99.90;;;5.20;100.00;101690.28;4917866;28;20535;-77
2022/05/15 03:07:47;;;;;;;20.02;5.63;;;6.60;99.90;;;5.14;100.00;101691.22;4938754;28;20043;-77
2022/05/15 03:10:17;;;;;;;21.90;5.90;;;6.50;99.90;;;5.11;100.00;101691.25;4974315;28;20034;-77
2022/05/15 03:12:42;;;;;;;23.70;6.63;;;6.50;99.90;;;5.06;100.00;101693.88;4949610;28;21046;-77
2022/05/15 03:15:13;;;;;;;16.45;5.57;;;6.50;99.90;;;5.05;100.00;101693.91;4903259;28;20030;-77
2022/05/15 03:17:39;;;;;;;24.33;6.43;;;6.40;99.90;;;5.03;100.00;101693.03;4896988;28;20102;-77
2022/05/15 03:20:06;;;;;;;21.48;6.38;;;6.40;99.90;;;5.04;100.00;101695.66;4923803;28;20102;-77
2022/05/15 03:22:32;;;;;;;20.42;6.00;;;6.50;99.90;;;5.09;100.00;101699.06;4917580;28;20134;-77
2022/05/15 03:24:58;;;;;;;15.52;5.63;;;6.50;99.90;;;5.07;100.00;101698.22;4920918;28;20031;-77
2022/05/15 03:27:23;;;;;;;16.10;5.80;;;6.40;99.90;;;5.09;100.00;101699.06;4912874;28;20189;-77
2022/05/15 03:29:52;;;;;;;20.98;6.13;;;6.40;99.90;;;5.07;100.00;101702.56;4945316;28;20386;-77
2022/05/15 03:32:18;;;;;;;18.60;5.63;;;6.40;99.90;;;5.09;100.00;101699.06;4916650;28;20030;-77
2022/05/15 03:34:43;;;;;;;16.05;5.90;;;6.50;99.90;;;5.16;100.00;101696.41;4907284;28;20109;-77
2022/05/15 03:37:09;;;;;;;16.52;5.10;;;6.60;99.90;;;5.33;100.00;101702.34;4926717;28;20054;-77
2022/05/15 03:39:35;;;;;;;16.25;5.88;;;6.70;99.90;;;5.47;100.00;101700.47;4918539;28;20035;-78
2022/05/15 03:42:00;;;;;;;20.27;5.72;;;6.80;99.90;;;5.60;100.00;101706.44;4924469;28;20030;-77
2022/05/15 03:44:27;;;;;;;29.70;6.00;;;6.90;99.90;;;5.69;100.00;101708.09;4897413;28;20077;-77
2022/05/15 03:46:52;;;;;;;16.38;5.60;;;6.90;99.90;;;5.76;100.00;101710.63;4958307;28;20042;-77
2022/05/15 03:49:18;;;;;;;23.33;5.78;;;7.10;99.90;;;5.89;100.00;101713.97;4925746;28;20066;-77
2022/05/15 03:51:44;;;;;;;24.65;5.00;;;7.10;99.90;;;5.99;100.00;101713.91;4958426;28;20034;-77
2022/05/15 03:54:10;;;;;;;14.98;5.18;;;7.30;99.90;;;6.12;100.00;101710.25;4942216;28;20033;-77
2022/05/15 03:56:50;;;;;;;18.42;5.28;;;7.50;99.90;;;6.36;100.00;101715.16;4922275;28;20042;-77
2022/05/15 03:59:38;;;;;;;29.30;5.75;;;8.40;99.90;;;7.75;100.00;101716.44;4942954;28;20131;-77
2022/05/15 04:02:06;;;;;;;14.88;4.70;;;10.00;99.90;;;9.47;100.00;101724.84;4905503;28;20049;-77
2022/05/15 04:04:35;;;;;;;11.57;4.30;;;11.40;99.90;;;10.98;100.00;101737.16;4942157;28;20046;-76
2022/05/15 04:07:01;;;;;;;15.82;4.47;;;12.70;99.90;;;12.28;88.05;101731.78;4919840;28;20064;-78
2022/05/15 04:09:29;;;;;;;14.80;3.90;;;13.70;99.90;;;13.47;78.10;101745.59;4932876;28;20043;-77
2022/05/15 04:11:55;;;;;;;9.68;4.00;;;14.70;99.90;;;14.59;71.80;101756.50;4941809;28;20813;-77
2022/05/15 04:14:21;;;;;;;13.60;4.50;;;15.60;99.90;;;15.54;66.70;101767.75;4915795;28;20030;-77
2022/05/15 04:16:47;;;;;;;14.45;3.78;;;16.30;99.90;;;16.28;63.79;101773.69;4958633;28;20807;-77
2022/05/15 04:19:13;;;;;;;13.13;3.35;;;16.90;99.90;;;16.94;60.67;101778.06;4951587;28;20049;-77
2022/05/15 04:21:40;;;;;;;9.02;3.45;;;17.40;99.90;;;17.56;58.55;101783.38;4951756;28;20043;-77
2022/05/15 04:24:12;;;;;;;9.85;3.20;;;18.00;99.90;;;18.39;56.26;101791.66;4945408;28;20023;-77
2022/05/15 04:26:39;;;;;;;14.18;3.47;;;18.70;99.90;;;19.33;53.89;101805.19;4926451;28;20045;-77
2022/05/15 04:29:06;;;;;;;13.15;3.90;;;19.20;99.90;;;19.96;52.22;101818.81;4944803;28;20102;-77
2022/05/15 04:31:33;;;;;;;8.93;2.92;;;19.60;99.90;;;20.28;50.74;101833.47;4976346;28;20071;-78
2022/05/15 04:34:00;;;;;;;11.57;3.05;;;19.90;99.90;;;20.67;49.80;101828.13;4949820;28;20039;-78
2022/05/15 04:36:26;;;;;;;9.95;2.88;;;20.30;99.90;;;21.31;48.49;101842.13;4920795;28;20027;-78
2022/05/15 04:38:52;;;;;;;12.77;3.10;;;20.80;99.80;;;22.19;46.66;101856.09;4942198;28;20473;-77
2022/05/15 04:41:21;;;;;;;10.05;3.00;;;21.10;98.70;;;22.55;45.60;101865.78;4941652;28;20057;-77
2022/05/15 04:43:47;;;;;;;11.70;2.95;;;21.50;98.50;;;23.11;44.47;101867.59;4919104;28;20478;-77
2022/05/15 04:46:13;;;;;;;7.55;2.75;;;21.80;98.50;;;23.86;43.75;101882.84;4943383;28;20074;-77
2022/05/15 04:48:39;;;;;;;;;;;21.90;99.40;;;24.81;41.31;101886.38;4962969;28;20035;-77
2022/05/15 04:51:05;;;;;;;5.65;2.58;;;23.10;97.00;;;25.73;40.43;101892.38;4966528;28;19983;-78
2022/05/15 04:53:31;;;;;;;12.15;2.88;;;23.80;96.80;;;26.72;38.83;101902.88;4944941;28;20027;-78
2022/05/15 04:56:00;;;;;;;8.02;2.72;;;24.30;95.40;;;27.30;37.92;101904.44;4937593;28;20480;-77
2022/05/15 04:58:27;;;;;;;9.32;2.60;;;24.80;94.90;;;27.72;36.87;101902.97;4939355;28;20037;-77
2022/05/15 05:00:54;;;;;;;8.00;2.25;;;25.20;94.00;;;28.01;36.04;101922.53;4915826;28;20035;-77
2022/05/15 05:03:19;;;;;;;12.25;2.30;;;25.50;93.80;;;28.31;35.80;101930.34;4943476;28;20454;-77
2022/05/15 05:05:45;;;;;;;12.20;2.45;;;25.60;92.80;;;28.43;35.42;101940.75;4931799;28;20034;-77
2022/05/15 05:08:20;;;;;;;8.38;2.30;;;25.40;92.40;;;28.14;35.18;101938.38;4921709;28;20129;-77
2022/05/15 05:10:46;;;;;;;9.48;2.42;;;25.20;92.70;;;27.71;36.00;101942.69;4969982;28;20037;-77
2022/05/15 05:13:13;;;;;;;12.15;2.22;;;25.00;92.60;;;27.71;35.75;101931.88;4952953;23;20039;-80
2022/05/15 05:15:39;;;;;;;7.55;1.95;;;25.00;92.80;;;27.78;35.69;101945.63;4976467;28;20568;-80
2022/05/15 05:18:07;;;;;;;10.55;2.47;;;24.80;93.30;;;27.94;35.70;101953.91;4923222;28;20031;-81
2022/05/15 05:20:33;;;;;;;6.75;2.00;;;24.90;93.40;;;27.95;35.57;101958.34;4959091;28;20025;-81
2022/05/15 05:22:59;;;;;;;9.85;2.20;;;24.90;93.40;;;27.94;35.24;101970.16;4938625;28;20039;-80
2022/05/15 05:25:25;;;;;;;9.77;2.20;;;25.10;93.70;;;28.23;34.94;101974.47;4946803;28;20031;-83
2022/05/15 05:27:50;;;;;;;7.80;2.20;;;25.20;92.90;;;28.30;34.69;101982.81;4934105;28;20138;-80
2022/05/15 05:30:20;;;;;;;;;;;25.10;93.20;;;28.23;34.71;101980.72;4943437;28;20034;-80
2022/05/15 05:32:47;;;;;;;7.75;1.90;;;25.30;93.00;;;28.49;34.50;101996.19;4944359;28;19913;-81
2022/05/15 05:35:15;;;;;;;10.50;2.08;;;25.50;93.40;;;28.97;34.04;102005.63;4924715;28;20023;-81
2022/05/15 05:37:41;;;;;;;6.07;2.15;;;25.80;93.40;;;29.46;33.27;102007.72;4951343;28;20145;-79
2022/05/15 05:40:09;;;;;;;6.85;1.80;;;26.20;93.30;;;29.92;33.00;102010.91;4926144;28;20058;-79
2022/05/15 05:42:35;;;;;;;9.20;2.05;;;26.60;92.10;;;30.07;32.60;102011.06;4959497;28;20031;-82
2022/05/15 05:45:02;;;;;;;6.18;1.80;;;26.60;91.50;;;29.63;32.47;102028.47;4963928;28;20034;-80
2022/05/15 05:47:30;;;;;;;9.35;2.15;;;26.90;91.50;;;30.32;31.65;102028.25;4943240;28;20042;-75
2022/05/15 05:49:56;;;;;;;4.68;1.70;;;26.80;91.30;;;29.92;32.38;102032.63;4947473;28;20026;-77
2022/05/15 05:52:24;;;;;;;8.00;2.00;;;26.70;90.90;;;29.60;32.60;102039.63;4948967;28;20030;-77
2022/05/15 05:54:50;;;;;;;4.63;1.50;;;26.70;90.20;;;29.67;32.25;102041.69;4968587;28;20031;-76
2022/05/15 05:57:16;;;;;;;8.88;1.98;;;26.60;90.30;;;29.36;32.60;102043.13;4931816;28;20514;-78
2022/05/15 05:59:42;;;;;;;5.75;1.80;;;26.20;90.40;;;28.76;33.21;102040.41;4948278;28;20027;-77
2022/05/15 06:02:08;;;;;;;5.22;1.40;;;26.00;90.50;;;28.41;33.40;102034.88;4950011;28;20475;-77
2022/05/15 06:04:41;;;;;;;;;;;25.90;90.60;;;28.77;32.78;102042.09;4937935;28;20061;-77
2022/05/15 06:07:14;;;;;;;8.70;1.85;;;25.90;90.50;;;28.80;33.15;102045.34;4951452;28;20303;-77
2022/05/15 06:09:43;;;;;;;4.63;1.80;;;26.20;90.70;;;29.00;32.87;102050.53;4958068;28;20594;-79
2022/05/15 06:12:12;;;;;;;11.68;2.05;;;26.30;89.00;;;28.54;32.90;102058.88;4963287;28;20550;-79
2022/05/15 06:14:37;;;;;;;8.07;2.20;;;26.30;91.00;;;28.35;33.39;102059.88;4952775;28;20171;-79
2022/05/15 06:17:06;;;;;;;8.00;1.85;;;26.30;90.20;;;28.30;33.59;102053.22;4944955;28;20027;-77
2022/05/15 06:19:32;;;;;;;4.97;1.42;;;26.40;90.00;;;28.45;33.19;102058.94;4950225;28;20023;-78
2022/05/15 06:21:58;;;;;;;10.43;2.35;;;26.60;90.10;;;28.57;33.34;102055.84;4956942;28;20716;-77
2022/05/15 06:24:25;;;;;;;12.48;1.98;;;26.50;88.80;;;27.97;33.53;102050.19;4952065;28;20122;-77
2022/05/15 06:26:52;;;;;;;11.13;2.03;;;26.30;88.80;;;27.93;33.70;102054.25;4942249;28;20046;-77
2022/05/15 06:29:18;;;;;;;6.18;1.80;;;26.20;87.70;;;27.30;34.17;102050.44;4958152;28;20102;-77
2022/05/15 06:31:46;;;;;;;9.98;2.33;;;26.20;87.30;;;27.78;33.10;102056.59;4951274;28;20023;-76
2022/05/15 06:34:13;;;;;;;5.20;1.52;;;26.60;88.60;;;28.28;32.74;102063.38;4950217;28;20543;-79
2022/05/15 06:36:40;;;;;;;10.30;2.10;;;26.80;88.00;;;28.59;33.17;102061.94;4937444;28;20031;-77
2022/05/15 06:39:06;;;;;;;11.23;2.28;;;26.80;86.10;;;28.14;33.03;102062.03;4954581;28;20026;-78
2022/05/15 06:41:32;;;;;;;7.78;2.15;;;27.00;87.70;;;28.36;33.70;102058.03;4949316;28;20040;-78
2022/05/15 06:44:00;;;;;;;8.98;2.10;;;27.00;88.00;;;28.30;33.00;102066.78;4922610;28;20054;-81
2022/05/15 06:46:27;;;;;;;7.22;1.80;;;26.90;86.90;;;28.16;33.58;102070.88;4929186;28;20047;-81
2022/05/15 06:48:53;;;;;;;8.98;2.13;;;26.70;85.20;;;27.72;33.33;102068.84;4910815;28;20049;-80
2022/05/15 06:51:20;;;;;;;9.95;2.00;;;26.90;86.00;;;27.86;33.67;102075.63;4919753;28;20042;-81
2022/05/15 06:53:47;;;;;;;8.73;1.88;;;27.20;86.70;;;28.55;32.85;102081.38;4921407;28;20045;-80
2022/05/15 06:58:58;;;;;;;7.78;2.08;;;28.10;83.60;;;29.11;31.64;102104.50;4929770;28;20037;-81
2022/05/15 07:01:24;;;;;;;9.45;2.08;;;28.40;81.90;;;29.31;31.37;102104.28;4898164;28;20494;-82
2022/05/15 07:03:50;;;;;;;8.05;1.58;;;28.50;81.40;;;29.00;31.74;102094.75;4901232;28;20034;-81
2022/05/15 07:06:16;;;;;;;8.40;2.38;;;28.40;81.30;;;28.91;32.05;102094.88;4927769;28;20030;-82
2022/05/15 07:08:43;;;;;;;8.63;2.10;;;28.40;81.40;;;28.97;32.00;102086.13;4928001;28;20027;-82
2022/05/15 07:11:13;;;;;;;9.55;2.20;;;28.50;81.50;;;28.68;32.33;102092.66;4948634;28;20023;-82
2022/05/15 07:13:39;;;;;;;6.50;2.10;;;28.00;80.20;;;27.54;33.23;102100.44;4924185;28;20066;-79
2022/05/15 07:16:05;;;;;;;8.10;2.17;;;27.50;82.50;;;26.99;34.08;102082.25;4932613;28;20440;-82
2022/05/15 07:18:31;;;;;;;10.25;2.20;;;27.20;81.80;;;26.91;33.89;102090.22;4932159;28;20054;-82
2022/05/15 07:20:57;;;;;;;11.65;2.38;;;27.10;83.20;;;27.26;33.63;102083.31;4904537;28;20029;-82
2022/05/15 07:23:22;;;;;;;9.18;2.10;;;27.00;81.40;;;26.79;34.42;102086.84;4951315;28;20023;-81
2022/05/15 07:25:49;;;;;;;8.52;1.95;;;27.30;83.30;;;27.20;34.02;102080.19;4935877;28;20053;-80
2022/05/15 07:28:16;;;;;;;9.50;2.28;;;;;;;26.58;34.27;102084.31;4914739;28;20019;-81
2022/05/15 07:30:42;;;;;;;8.82;1.88;;;26.50;83.10;;;26.02;35.26;102077.72;4953776;28;20035;-81
2022/05/15 07:33:08;;;;;;;6.60;1.88;;;26.20;84.40;;;25.62;35.57;102075.06;4920442;28;20035;-81
2022/05/15 07:35:35;;;;;;;7.07;2.00;;;26.30;83.50;;;26.21;34.62;102076.03;4947884;28;20492;-81
2022/05/15 07:38:01;;;;;;;13.70;2.00;;;26.30;84.20;;;25.77;35.81;102081.78;4939458;28;20047;-80
2022/05/15 07:40:27;;;;;;;9.90;2.15;;;26.30;83.90;;;26.03;35.08;102078.59;4942457;28;20030;-80
2022/05/15 07:42:53;;;;;;;9.75;2.20;;;26.60;82.50;;;26.61;34.14;102070.53;4954377;28;20504;-81
2022/05/15 07:45:24;;;;;;;8.45;2.00;;;26.70;83.50;;;26.52;33.88;102074.91;4904084;28;20034;-81
2022/05/15 07:47:49;;;;;;;9.15;2.20;;;26.70;82.10;;;26.53;34.04;102075.75;4917977;28;20040;-80
2022/05/15 07:50:15;;;;;;;13.63;2.28;;;27.10;83.50;;;27.30;34.08;102074.78;4935110;28;20106;-81
2022/05/15 07:52:41;;;;;;;9.57;2.03;;;27.30;81.80;;;27.27;33.68;102071.50;4952634;28;20119;-81
2022/05/15 07:55:07;;;;;;;8.95;2.30;;;27.30;81.50;;;26.99;33.75;102074.13;4943700;28;20146;-81
2022/05/15 07:57:34;;;;;;;7.20;2.00;;;26.90;82.80;;;26.28;35.30;102066.38;4919728;28;20038;-80
2022/05/15 08:00:05;;;;;;;7.70;2.38;;;26.70;83.10;;;26.10;35.31;102063.53;4906756;28;20087;-81
2022/05/15 08:02:31;;;;;;;11.30;2.10;;;26.60;84.20;;;26.18;35.89;102066.38;4903816;28;20023;-81
2022/05/15 08:08:02;;;;;;;7.88;2.30;;;26.00;83.10;;;25.43;35.96;102067.75;4898117;28;20057;-80
2022/05/15 08:10:30;;;;;;;;;;;25.80;83.00;;;25.34;35.67;102067.59;4904355;28;20059;-80
2022/05/15 08:12:56;;;;;;;9.80;2.63;;;26.00;85.80;;;26.01;36.01;102064.38;4957128;28;20013;-81
2022/05/15 08:15:22;;;;;;;9.15;2.45;;;26.20;85.40;;;26.26;36.05;102060.25;4894482;28;20086;-80
2022/05/15 08:17:48;;;;;;;7.00;2.25;;;26.60;84.70;;;26.86;34.96;102071.75;4941940;28;20058;-80
2022/05/15 08:25:46;;;;;;;7.63;1.73;;;25.30;85.60;;;24.85;36.93;102060.22;4926738;28;20520;-79
2022/05/15 08:28:13;;;;;;;7.10;1.92;;;24.90;85.40;;;24.02;38.33;102049.22;4955028;28;20023;-81
2022/05/15 08:30:41;;;;;;;6.80;1.83;;;24.50;88.10;;;23.92;38.74;102045.56;4951151;28;20048;-80
2022/05/15 08:33:10;;;;;;;6.65;2.20;;;24.30;88.20;;;23.99;39.16;102046.75;4935755;28;20118;-79
2022/05/15 08:35:36;;;;;;;6.60;2.00;;;23.90;87.30;;;23.20;39.88;102054.06;4939607;28;20030;-81
2022/05/15 08:38:03;;;;;;;6.93;2.10;;;23.70;87.50;;;23.06;40.06;102042.56;4943949;28;20035;-81
2022/05/15 08:41:06;;;;;;;11.00;2.15;;;23.60;89.10;;;23.06;40.12;102036.34;4963160;28;20023;-79
2022/05/15 08:43:44;;;;;;;8.93;2.17;;;23.50;89.20;;;22.89;40.64;102040.31;4908188;28;20639;-81
2022/05/15 08:46:37;;;;;;;15.98;3.83;;;23.00;88.90;;;21.54;43.00;102021.81;4924801;28;20045;-80
2022/05/15 08:49:41;;;;;;;8.52;2.22;;;22.10;90.80;;;20.30;45.43;102028.59;4962474;28;20027;-80
2022/05/15 08:52:15;;;;;;;7.63;1.80;;;21.10;91.20;;;19.65;46.50;102018.56;4924967;28;20177;-78
2022/05/15 08:55:04;;;;;;;12.70;2.55;;;20.90;93.30;;;19.96;47.58;102016.63;4923818;28;20039;-80
2022/05/15 08:57:45;;;;;;;7.55;1.95;;;21.10;93.40;;;20.43;46.50;102012.56;4950654;28;20032;-79
2022/05/15 09:00:15;;;;;;;9.07;1.90;;;20.90;91.80;;;19.92;45.75;102021.31;4927049;28;20042;-79
2022/05/15 09:02:43;;;;;;;9.05;2.28;;;20.80;93.30;;;19.90;47.72;102007.19;4944858;28;20034;-81
2022/05/15 09:05:12;;;;;;;6.18;2.10;;;20.70;92.60;;;19.72;46.84;102003.91;4935409;28;20435;-77
2022/05/15 09:08:32;;;;;;;15.25;1.80;;;20.60;93.10;;;19.98;46.23;101993.31;4935139;28;20042;-80
2022/05/15 09:11:03;;;;;;;6.35;1.80;;;20.60;92.40;;;19.75;46.56;101992.16;4965369;28;20465;-80
2022/05/15 09:13:40;;;;;;;6.07;1.83;;;20.60;93.70;;;19.93;46.23;101996.28;4951823;28;20130;-78
2022/05/15 09:16:24;;;;;;;8.05;2.00;;;20.60;92.80;;;20.12;45.72;101993.25;4928387;28;20037;-79
2022/05/15 09:19:05;;;;;;;10.40;1.85;;;20.70;93.60;;;20.03;47.00;101989.38;4943711;28;20154;-78
2022/05/15 09:21:32;;;;;;;3.90;1.38;;;20.70;94.00;;;20.21;46.59;101979.25;4948327;28;20019;-79
2022/05/15 09:24:16;;;;;;;12.48;2.33;;;20.90;93.80;;;20.46;45.43;101974.94;4949878;28;20023;-80
2022/05/15 09:26:47;;;;;;;7.65;1.60;;;21.00;93.10;;;20.47;45.67;101976.63;4933125;28;20090;-80
2022/05/15 09:29:28;;;;;;;6.47;1.85;;;20.90;91.70;;;20.20;45.35;101974.03;4942704;28;20038;-79
2022/05/15 09:32:00;;;;;;;8.98;1.98;;;20.70;92.30;;;20.02;45.59;101970.75;4973484;28;21286;-81
2022/05/15 09:34:32;;;;;;;6.82;1.42;;;20.80;93.60;;;20.34;46.46;101967.72;4940053;28;20503;-81
2022/05/15 09:39:50;;;;;;;8.20;1.65;;;21.10;92.10;;;20.67;44.47;101970.78;4950128;28;20113;-81
2022/05/15 09:45:19;;;;;;;5.13;1.60;;;21.20;92.90;;;20.54;45.42;101974.38;4969435;28;20627;-80
2022/05/15 09:48:10;;;;;;;4.75;1.50;;;21.10;92.60;;;20.53;44.48;101965.50;4963781;28;20038;-79
2022/05/15 09:50:51;;;;;;;9.60;2.13;;;21.20;92.50;;;20.80;44.84;101973.47;4927718;28;20023;-80
2022/05/15 09:53:52;;;;;;;6.45;1.60;;;21.30;92.70;;;20.83;43.37;101975.06;4958512;28;20035;-79
2022/05/15 09:56:35;;;;;;;6.03;1.58;;;21.40;92.10;;;21.02;43.76;101963.91;4947489;28;20487;-78
2022/05/15 09:59:12;;;;;;;5.90;2.15;;;21.50;91.10;;;21.04;42.93;101973.56;4936422;28;20027;-79
2022/05/15 10:01:40;;;;;;;8.98;1.95;;;21.50;91.10;;;20.89;43.38;101972.81;4947245;28;20078;-80
2022/05/15 10:04:27;;;;;;;7.20;1.80;;;21.50;92.40;;;20.82;43.22;101963.50;4945756;28;20058;-80
2022/05/15 10:07:08;;;;;;;;;;;21.40;91.30;;;20.44;45.22;101963.47;4958692;28;20019;-81
2022/05/15 10:09:41;;;;;;;8.13;2.08;;;21.30;91.90;;;20.61;44.35;101960.50;4968010;28;19916;-79
2022/05/15 10:12:35;;;;;;;5.05;1.60;;;21.30;92.20;;;20.93;44.34;101965.44;4955037;28;20035;-79
2022/05/15 10:15:08;;;;;;;5.28;1.20;;;21.60;91.80;;;21.11;43.04;101960.59;4929507;28;21247;-78
2022/05/15 10:17:41;;;;;;;5.82;1.85;;;21.80;92.00;;;21.39;44.40;101948.72;4965635;28;20051;-80
2022/05/15 10:20:29;;;;;;;8.63;1.90;;;22.20;92.30;;;22.12;43.85;101939.72;4954470;28;20526;-79
2022/05/15 10:23:35;;;;;;;7.95;1.60;;;22.40;91.20;;;22.03;41.65;101947.59;4904222;28;20039;-80
2022/05/15 10:26:14;;;;;;;5.57;1.40;;;22.30;91.40;;;21.43;43.72;101942.22;4959198;28;20042;-80
2022/05/15 10:29:27;;;;;;;6.72;1.67;;;22.00;90.10;;;20.83;43.72;101956.34;4953927;28;20391;-79
2022/05/15 10:32:12;;;;;;;5.50;1.60;;;21.50;91.50;;;20.40;44.70;101945.91;4894579;28;20483;-80
2022/05/15 10:34:41;;;;;;;8.77;1.48;;;21.20;90.70;;;20.08;44.33;101935.59;4913632;28;20026;-80
2022/05/15 10:37:47;;;;;;;9.23;1.80;;;21.10;91.10;;;20.46;43.54;101934.78;4932237;28;20072;-81
2022/05/15 10:40:45;;;;;;;7.07;1.92;;;21.50;92.30;;;21.21;44.06;101928.63;4952127;28;20041;-81
2022/05/15 10:43:58;;;;;;;4.35;1.52;;;21.60;90.90;;;20.75;43.93;101939.94;4953794;28;20031;-79
2022/05/15 10:46:49;;;;;;;4.07;1.40;;;21.10;91.70;;;19.76;44.57;101929.72;4949914;28;20031;-81